sensor_id;sensor_type;location;lat;lon;timestamp;pressure;altitude;pressure_sealevel;temperature;humidity
22647;BME280;11490;42.726;23.268;2023-02-12T00:02:22;96226.66;;;0.83;58.18
22647;BME280;11490;42.726;23.268;2023-02-12T00:04:47;96234.97;;;0.78;58.36
22647;BME280;11490;42.726;23.268;2023-02-12T00:07:13;96229.72;;;0.78;58.64
22647;BME280;11490;42.726;23.268;2023-02-12T00:09:38;96222.94;;;0.68;58.61
22647;BME280;11490;42.726;23.268;2023-02-12T00:12:04;96221.78;;;0.70;58.41
22647;BME280;11490;42.726;23.268;2023-02-12T00:14:29;96228.47;;;0.65;59.05
22647;BME280;11490;42.726;23.268;2023-02-12T00:16:55;96233.66;;;0.74;58.53
22647;BME280;11490;42.726;23.268;2023-02-12T00:19:20;96234.41;;;0.49;58.81
22647;BME280;11490;42.726;23.268;2023-02-12T00:21:45;96215.28;;;0.57;58.97
22647;BME280;11490;42.726;23.268;2023-02-12T00:24:11;96228.91;;;0.78;58.74
22647;BME280;11490;42.726;23.268;2023-02-12T00:26:36;96225.91;;;0.73;58.87
22647;BME280;11490;42.726;23.268;2023-02-12T00:29:02;96219.53;;;0.75;59.21
22647;BME280;11490;42.726;23.268;2023-02-12T00:31:29;96222.81;;;0.77;58.42
22647;BME280;11490;42.726;23.268;2023-02-12T00:33:55;96223.56;;;0.88;58.30
22647;BME280;11490;42.726;23.268;2023-02-12T00:36:23;96218.78;;;0.83;58.10
22647;BME280;11490;42.726;23.268;2023-02-12T00:38:50;96202.56;;;0.88;58.49
22647;BME280;11490;42.726;23.268;2023-02-12T00:41:16;96218.53;;;0.94;57.99
22647;BME280;11490;42.726;23.268;2023-02-12T00:43:41;96197.00;;;0.91;58.04
22647;BME280;11490;42.726;23.268;2023-02-12T00:46:07;96198.88;;;0.98;57.77
22647;BME280;11490;42.726;23.268;2023-02-12T00:48:34;96190.00;;;0.99;57.74
22647;BME280;11490;42.726;23.268;2023-02-12T00:50:59;96186.31;;;0.84;58.45
22647;BME280;11490;42.726;23.268;2023-02-12T00:53:25;96170.28;;;0.95;59.29
22647;BME280;11490;42.726;23.268;2023-02-12T00:55:50;96174.56;;;0.96;58.71
22647;BME280;11490;42.726;23.268;2023-02-12T00:58:15;96167.97;;;0.92;58.65
22647;BME280;11490;42.726;23.268;2023-02-12T01:00:41;96159.00;;;1.03;59.27
22647;BME280;11490;42.726;23.268;2023-02-12T01:03:07;96164.78;;;1.06;59.66
22647;BME280;11490;42.726;23.268;2023-02-12T01:05:32;96163.16;;;1.13;59.04
22647;BME280;11490;42.726;23.268;2023-02-12T01:07:58;96180.44;;;1.16;59.59
22647;BME280;11490;42.726;23.268;2023-02-12T01:10:24;96176.59;;;1.10;60.15
22647;BME280;11490;42.726;23.268;2023-02-12T01:12:49;96175.94;;;1.08;60.17
22647;BME280;11490;42.726;23.268;2023-02-12T01:15:16;96170.84;;;1.07;60.33
22647;BME280;11490;42.726;23.268;2023-02-12T01:17:42;96189.38;;;1.05;60.30
22647;BME280;11490;42.726;23.268;2023-02-12T01:20:11;96185.16;;;1.12;60.25
22647;BME280;11490;42.726;23.268;2023-02-12T01:22:37;96181.84;;;1.10;59.89
22647;BME280;11490;42.726;23.268;2023-02-12T01:25:06;96195.13;;;1.09;60.66
22647;BME280;11490;42.726;23.268;2023-02-12T01:27:32;96193.03;;;1.12;60.33
22647;BME280;11490;42.726;23.268;2023-02-12T01:29:57;96188.03;;;1.01;60.75
22647;BME280;11490;42.726;23.268;2023-02-12T01:32:23;96183.34;;;0.87;61.17
22647;BME280;11490;42.726;23.268;2023-02-12T01:34:48;96197.94;;;0.82;61.15
22647;BME280;11490;42.726;23.268;2023-02-12T01:37:14;96171.13;;;0.78;61.50
22647;BME280;11490;42.726;23.268;2023-02-12T01:39:39;96177.06;;;0.80;61.80
22647;BME280;11490;42.726;23.268;2023-02-12T01:42:05;96174.31;;;0.64;62.52
22647;BME280;11490;42.726;23.268;2023-02-12T01:44:33;96167.00;;;0.50;62.83
22647;BME280;11490;42.726;23.268;2023-02-12T01:47:03;96164.22;;;0.51;62.96
22647;BME280;11490;42.726;23.268;2023-02-12T01:49:39;96150.28;;;0.51;63.74
22647;BME280;11490;42.726;23.268;2023-02-12T01:52:26;96163.09;;;0.54;63.88
22647;BME280;11490;42.726;23.268;2023-02-12T01:54:54;96171.34;;;0.59;63.66
22647;BME280;11490;42.726;23.268;2023-02-12T01:57:23;96167.41;;;0.63;63.76
22647;BME280;11490;42.726;23.268;2023-02-12T01:59:52;96160.53;;;0.62;63.87
22647;BME280;11490;42.726;23.268;2023-02-12T02:02:19;96166.91;;;0.59;64.42
22647;BME280;11490;42.726;23.268;2023-02-12T02:04:55;96169.16;;;0.54;65.00
22647;BME280;11490;42.726;23.268;2023-02-12T02:07:22;96156.50;;;0.50;65.32
22647;BME280;11490;42.726;23.268;2023-02-12T02:09:48;96168.25;;;0.63;65.32
22647;BME280;11490;42.726;23.268;2023-02-12T02:12:14;96170.59;;;0.49;65.65
22647;BME280;11490;42.726;23.268;2023-02-12T02:14:59;96162.22;;;0.27;66.91
22647;BME280;11490;42.726;23.268;2023-02-12T02:17:56;96156.63;;;0.22;67.30
22647;BME280;11490;42.726;23.268;2023-02-12T02:29:03;96154.44;;;0.00;67.44
22647;BME280;11490;42.726;23.268;2023-02-12T02:31:46;96154.28;;;0.19;67.27
22647;BME280;11490;42.726;23.268;2023-02-12T02:37:17;96145.13;;;0.23;66.86
22647;BME280;11490;42.726;23.268;2023-02-12T02:39:59;96142.31;;;-0.01;68.21
22647;BME280;11490;42.726;23.268;2023-02-12T02:42:42;96144.91;;;0.17;67.59
22647;BME280;11490;42.726;23.268;2023-02-12T02:45:15;96144.53;;;0.29;68.02
22647;BME280;11490;42.726;23.268;2023-02-12T02:48:17;96143.38;;;0.32;67.73
22647;BME280;11490;42.726;23.268;2023-02-12T02:50:48;96144.69;;;0.10;68.40
22647;BME280;11490;42.726;23.268;2023-02-12T02:53:24;96143.56;;;0.30;67.45
22647;BME280;11490;42.726;23.268;2023-02-12T02:55:53;96163.25;;;0.34;67.58
22647;BME280;11490;42.726;23.268;2023-02-12T02:58:23;96143.25;;;0.33;68.02
22647;BME280;11490;42.726;23.268;2023-02-12T03:06:05;96169.69;;;0.58;66.80
22647;BME280;11490;42.726;23.268;2023-02-12T03:08:36;96170.47;;;0.15;66.67
22647;BME280;11490;42.726;23.268;2023-02-12T03:11:10;96160.34;;;0.20;66.49
22647;BME280;11490;42.726;23.268;2023-02-12T03:13:47;96167.59;;;0.44;67.27
22647;BME280;11490;42.726;23.268;2023-02-12T03:16:26;96161.13;;;0.56;67.99
22647;BME280;11490;42.726;23.268;2023-02-12T03:19:07;96148.91;;;0.47;68.16
22647;BME280;11490;42.726;23.268;2023-02-12T03:22:01;96152.81;;;0.60;68.05
22647;BME280;11490;42.726;23.268;2023-02-12T03:24:42;96146.13;;;0.66;68.29
22647;BME280;11490;42.726;23.268;2023-02-12T03:29:39;96132.53;;;0.45;67.61
22647;BME280;11490;42.726;23.268;2023-02-12T03:34:53;96128.78;;;0.73;67.75
22647;BME280;11490;42.726;23.268;2023-02-12T03:37:30;96144.28;;;0.84;67.40
22647;BME280;11490;42.726;23.268;2023-02-12T03:40:16;96139.69;;;0.86;68.07
22647;BME280;11490;42.726;23.268;2023-02-12T03:45:49;96135.00;;;0.98;67.22
22647;BME280;11490;42.726;23.268;2023-02-12T03:48:23;96141.38;;;0.95;65.63
22647;BME280;11490;42.726;23.268;2023-02-12T03:53:34;96134.25;;;1.13;64.51
22647;BME280;11490;42.726;23.268;2023-02-12T03:56:10;96130.66;;;1.14;64.94
22647;BME280;11490;42.726;23.268;2023-02-12T03:58:37;96142.06;;;0.97;64.90
22647;BME280;11490;42.726;23.268;2023-02-12T04:01:04;96132.13;;;0.83;65.07
22647;BME280;11490;42.726;23.268;2023-02-12T04:03:30;96113.06;;;0.81;65.63
22647;BME280;11490;42.726;23.268;2023-02-12T04:05:56;96135.00;;;0.98;65.63
22647;BME280;11490;42.726;23.268;2023-02-12T04:08:22;96129.31;;;1.10;65.88
22647;BME280;11490;42.726;23.268;2023-02-12T04:11:29;96131.22;;;0.92;65.79
22647;BME280;11490;42.726;23.268;2023-02-12T04:19:32;96155.66;;;1.27;65.69
22647;BME280;11490;42.726;23.268;2023-02-12T04:24:58;96157.84;;;1.31;65.88
22647;BME280;11490;42.726;23.268;2023-02-12T04:27:34;96151.13;;;1.37;66.07
22647;BME280;11490;42.726;23.268;2023-02-12T04:30:05;96152.44;;;1.41;66.13
22647;BME280;11490;42.726;23.268;2023-02-12T04:32:43;96151.25;;;1.27;67.46
22647;BME280;11490;42.726;23.268;2023-02-12T04:35:13;96166.22;;;1.35;66.73
22647;BME280;11490;42.726;23.268;2023-02-12T04:37:44;96172.75;;;1.23;65.96
22647;BME280;11490;42.726;23.268;2023-02-12T04:40:15;96145.16;;;1.27;66.02
22647;BME280;11490;42.726;23.268;2023-02-12T04:42:47;96157.50;;;1.34;67.51
22647;BME280;11490;42.726;23.268;2023-02-12T04:45:21;96170.59;;;1.26;67.48
22647;BME280;11490;42.726;23.268;2023-02-12T04:47:48;96166.06;;;1.36;66.35
22647;BME280;11490;42.726;23.268;2023-02-12T04:50:14;96161.06;;;1.25;66.95
22647;BME280;11490;42.726;23.268;2023-02-12T04:52:39;96159.59;;;1.23;66.48
22647;BME280;11490;42.726;23.268;2023-02-12T04:55:05;96167.50;;;1.23;66.90
22647;BME280;11490;42.726;23.268;2023-02-12T04:57:30;96173.72;;;1.22;65.98
22647;BME280;11490;42.726;23.268;2023-02-12T04:59:56;96176.69;;;1.27;66.23
22647;BME280;11490;42.726;23.268;2023-02-12T05:02:21;96173.91;;;1.28;65.85
22647;BME280;11490;42.726;23.268;2023-02-12T05:04:48;96173.34;;;1.16;65.44
22647;BME280;11490;42.726;23.268;2023-02-12T05:07:14;96176.97;;;1.15;65.43
22647;BME280;11490;42.726;23.268;2023-02-12T05:09:39;96171.53;;;1.17;65.95
22647;BME280;11490;42.726;23.268;2023-02-12T05:12:04;96171.03;;;1.13;65.87
22647;BME280;11490;42.726;23.268;2023-02-12T05:14:30;96178.66;;;1.25;65.05
22647;BME280;11490;42.726;23.268;2023-02-12T05:16:55;96177.44;;;1.11;66.05
22647;BME280;11490;42.726;23.268;2023-02-12T05:19:21;96182.38;;;1.14;65.55
22647;BME280;11490;42.726;23.268;2023-02-12T05:21:49;96186.47;;;1.16;65.45
22647;BME280;11490;42.726;23.268;2023-02-12T05:24:14;96164.13;;;1.12;64.98
22647;BME280;11490;42.726;23.268;2023-02-12T05:26:40;96183.84;;;1.16;65.27
22647;BME280;11490;42.726;23.268;2023-02-12T05:29:05;96180.63;;;1.23;65.14
22647;BME280;11490;42.726;23.268;2023-02-12T05:31:31;96187.09;;;1.10;65.41
22647;BME280;11490;42.726;23.268;2023-02-12T05:33:56;96198.63;;;1.17;66.29
22647;BME280;11490;42.726;23.268;2023-02-12T05:36:22;96204.91;;;1.25;66.38
22647;BME280;11490;42.726;23.268;2023-02-12T05:38:48;96202.19;;;1.08;67.31
22647;BME280;11490;42.726;23.268;2023-02-12T05:41:16;96202.63;;;1.22;67.61
22647;BME280;11490;42.726;23.268;2023-02-12T05:43:42;96214.88;;;1.13;68.33
22647;BME280;11490;42.726;23.268;2023-02-12T05:46:09;96208.56;;;1.24;68.23
22647;BME280;11490;42.726;23.268;2023-02-12T05:48:35;96209.53;;;1.23;68.97
22647;BME280;11490;42.726;23.268;2023-02-12T05:51:09;96197.94;;;1.07;69.70
22647;BME280;11490;42.726;23.268;2023-02-12T05:53:36;96224.41;;;1.14;71.19
22647;BME280;11490;42.726;23.268;2023-02-12T05:56:07;96213.47;;;1.01;71.81
22647;BME280;11490;42.726;23.268;2023-02-12T05:58:33;96229.13;;;1.10;73.57
22647;BME280;11490;42.726;23.268;2023-02-12T06:00:58;96219.94;;;1.06;74.83
22647;BME280;11490;42.726;23.268;2023-02-12T06:03:24;96229.22;;;1.01;75.16
22647;BME280;11490;42.726;23.268;2023-02-12T06:05:50;96231.06;;;1.00;75.48
22647;BME280;11490;42.726;23.268;2023-02-12T06:08:15;96226.56;;;0.93;75.44
22647;BME280;11490;42.726;23.268;2023-02-12T06:10:41;96218.38;;;0.96;76.61
22647;BME280;11490;42.726;23.268;2023-02-12T06:13:06;96216.94;;;1.01;76.85
22647;BME280;11490;42.726;23.268;2023-02-12T06:15:31;96237.06;;;1.19;76.51
22647;BME280;11490;42.726;23.268;2023-02-12T06:17:57;96234.53;;;1.09;77.58
22647;BME280;11490;42.726;23.268;2023-02-12T06:20:22;96212.41;;;1.11;78.50
22647;BME280;11490;42.726;23.268;2023-02-12T06:22:47;96216.00;;;1.10;79.63
22647;BME280;11490;42.726;23.268;2023-02-12T06:25:13;96207.16;;;1.11;80.36
22647;BME280;11490;42.726;23.268;2023-02-12T06:27:38;96214.09;;;1.21;81.21
22647;BME280;11490;42.726;23.268;2023-02-12T06:30:04;96215.94;;;1.02;82.71
22647;BME280;11490;42.726;23.268;2023-02-12T06:32:29;96218.22;;;0.97;84.09
22647;BME280;11490;42.726;23.268;2023-02-12T06:34:55;96219.66;;;1.17;84.18
22647;BME280;11490;42.726;23.268;2023-02-12T06:37:20;96226.06;;;1.15;84.86
22647;BME280;11490;42.726;23.268;2023-02-12T06:39:46;96236.41;;;1.16;84.96
22647;BME280;11490;42.726;23.268;2023-02-12T06:42:11;96240.69;;;1.17;85.41
22647;BME280;11490;42.726;23.268;2023-02-12T06:44:36;96235.53;;;1.08;86.43
22647;BME280;11490;42.726;23.268;2023-02-12T06:47:02;96220.91;;;1.05;86.71
22647;BME280;11490;42.726;23.268;2023-02-12T06:49:27;96239.84;;;1.17;86.74
22647;BME280;11490;42.726;23.268;2023-02-12T06:51:52;96227.09;;;1.22;86.73
22647;BME280;11490;42.726;23.268;2023-02-12T06:54:18;96241.16;;;1.39;86.43
22647;BME280;11490;42.726;23.268;2023-02-12T06:56:43;96230.16;;;1.17;86.94
22647;BME280;11490;42.726;23.268;2023-02-12T06:59:12;96238.94;;;1.26;86.98
22647;BME280;11490;42.726;23.268;2023-02-12T07:01:39;96228.50;;;1.16;87.00
22647;BME280;11490;42.726;23.268;2023-02-12T07:04:05;96245.34;;;1.24;86.86
22647;BME280;11490;42.726;23.268;2023-02-12T07:06:32;96240.69;;;1.17;87.08
22647;BME280;11490;42.726;23.268;2023-02-12T07:08:58;96238.53;;;1.39;86.05
22647;BME280;11490;42.726;23.268;2023-02-12T07:11:24;96233.91;;;1.41;85.37
22647;BME280;11490;42.726;23.268;2023-02-12T07:13:51;96230.38;;;1.50;84.64
22647;BME280;11490;42.726;23.268;2023-02-12T07:16:16;96232.22;;;1.32;85.44
22647;BME280;11490;42.726;23.268;2023-02-12T07:18:43;96243.41;;;1.34;85.79
22647;BME280;11490;42.726;23.268;2023-02-12T07:21:09;96237.56;;;1.48;85.17
22647;BME280;11490;42.726;23.268;2023-02-12T07:23:36;96246.47;;;1.47;85.07
22647;BME280;11490;42.726;23.268;2023-02-12T07:26:12;96240.78;;;1.60;85.05
22647;BME280;11490;42.726;23.268;2023-02-12T07:28:38;96254.38;;;1.55;84.99
22647;BME280;11490;42.726;23.268;2023-02-12T07:31:15;96258.09;;;1.70;84.05
22647;BME280;11490;42.726;23.268;2023-02-12T07:33:41;96267.69;;;1.53;84.30
22647;BME280;11490;42.726;23.268;2023-02-12T07:36:12;96261.84;;;1.68;83.64
22647;BME280;11490;42.726;23.268;2023-02-12T07:38:39;96250.81;;;1.64;83.92
22647;BME280;11490;42.726;23.268;2023-02-12T07:41:09;96265.59;;;1.65;83.54
22647;BME280;11490;42.726;23.268;2023-02-12T07:43:37;96262.03;;;1.74;83.49
22647;BME280;11490;42.726;23.268;2023-02-12T07:46:12;96260.00;;;1.60;84.47
22647;BME280;11490;42.726;23.268;2023-02-12T07:48:37;96263.56;;;1.51;84.38
22647;BME280;11490;42.726;23.268;2023-02-12T07:51:08;96265.59;;;1.65;84.19
22647;BME280;11490;42.726;23.268;2023-02-12T07:53:34;96256.03;;;1.56;84.03
22647;BME280;11490;42.726;23.268;2023-02-12T07:56:10;96273.16;;;1.60;84.85
22647;BME280;11490;42.726;23.268;2023-02-12T07:58:36;96268.22;;;1.65;84.43
22647;BME280;11490;42.726;23.268;2023-02-12T08:03:36;96263.56;;;1.51;85.01
22647;BME280;11490;42.726;23.268;2023-02-12T08:06:08;96274.47;;;1.64;85.14
22647;BME280;11490;42.726;23.268;2023-02-12T08:08:34;96281.38;;;1.65;84.67
22647;BME280;11490;42.726;23.268;2023-02-12T08:11:03;96269.75;;;1.68;84.88
22647;BME280;11490;42.726;23.268;2023-02-12T08:13:29;96272.50;;;1.66;84.71
22647;BME280;11490;42.726;23.268;2023-02-12T08:16:01;96270.66;;;1.59;85.38
22647;BME280;11490;42.726;23.268;2023-02-12T08:18:29;96274.06;;;1.77;85.17
22647;BME280;11490;42.726;23.268;2023-02-12T08:20:54;96270.22;;;1.71;85.50
22647;BME280;11490;42.726;23.268;2023-02-12T08:23:20;96265.31;;;1.68;85.26
22647;BME280;11490;42.726;23.268;2023-02-12T08:25:45;96270.88;;;1.65;85.61
22647;BME280;11490;42.726;23.268;2023-02-12T08:28:10;96277.84;;;1.82;85.35
22647;BME280;11490;42.726;23.268;2023-02-12T08:30:36;96282.28;;;1.82;85.57
22647;BME280;11490;42.726;23.268;2023-02-12T08:33:01;96289.69;;;1.86;85.72
22647;BME280;11490;42.726;23.268;2023-02-12T08:35:26;96274.75;;;1.87;85.78
22647;BME280;11490;42.726;23.268;2023-02-12T08:37:52;96284.78;;;1.83;86.10
22647;BME280;11490;42.726;23.268;2023-02-12T08:40:17;96293.19;;;1.95;85.39
22647;BME280;11490;42.726;23.268;2023-02-12T08:42:43;96283.13;;;1.82;85.26
22647;BME280;11490;42.726;23.268;2023-02-12T08:45:08;96290.91;;;1.92;85.46
22647;BME280;11490;42.726;23.268;2023-02-12T08:47:34;96301.94;;;2.04;84.44
22647;BME280;11490;42.726;23.268;2023-02-12T08:49:59;96300.97;;;2.05;84.47
22647;BME280;11490;42.726;23.268;2023-02-12T08:52:24;96297.69;;;2.11;84.76
22647;BME280;11490;42.726;23.268;2023-02-12T08:54:50;96289.66;;;2.12;84.58
22647;BME280;11490;42.726;23.268;2023-02-12T08:57:15;96300.81;;;2.06;84.47
22647;BME280;11490;42.726;23.268;2023-02-12T08:59:41;96303.31;;;2.08;84.83
22647;BME280;11490;42.726;23.268;2023-02-12T09:02:08;96314.19;;;2.21;84.17
22647;BME280;11490;42.726;23.268;2023-02-12T09:04:34;96301.56;;;2.24;84.00
22647;BME280;11490;42.726;23.268;2023-02-12T09:07:00;96305.25;;;2.06;84.49
22647;BME280;11490;42.726;23.268;2023-02-12T09:09:26;96318.44;;;2.14;85.00
22647;BME280;11490;42.726;23.268;2023-02-12T09:11:51;96323.06;;;2.20;84.90
22647;BME280;11490;42.726;23.268;2023-02-12T09:14:18;96297.03;;;2.01;85.17
22647;BME280;11490;42.726;23.268;2023-02-12T09:16:47;96297.44;;;1.88;85.60
22647;BME280;11490;42.726;23.268;2023-02-12T09:19:13;96310.53;;;2.06;85.44
22647;BME280;11490;42.726;23.268;2023-02-12T09:21:38;96313.19;;;2.14;84.84
22647;BME280;11490;42.726;23.268;2023-02-12T09:24:04;96322.97;;;2.29;85.12
22647;BME280;11490;42.726;23.268;2023-02-12T09:26:29;96324.75;;;2.29;84.83
22647;BME280;11490;42.726;23.268;2023-02-12T09:28:55;96326.34;;;2.14;84.91
22647;BME280;11490;42.726;23.268;2023-02-12T09:31:23;96322.09;;;2.21;85.23
22647;BME280;11490;42.726;23.268;2023-02-12T09:33:51;96315.53;;;2.25;84.93
22647;BME280;11490;42.726;23.268;2023-02-12T09:36:17;96328.22;;;2.29;84.90
22647;BME280;11490;42.726;23.268;2023-02-12T09:38:43;96331.06;;;2.44;84.66
22647;BME280;11490;42.726;23.268;2023-02-12T09:46:46;96334.38;;;2.46;84.62
22647;BME280;11490;42.726;23.268;2023-02-12T09:52:24;96341.97;;;2.65;83.39
22647;BME280;11490;42.726;23.268;2023-02-12T09:54:51;96340.72;;;2.78;82.65
22647;BME280;11490;42.726;23.268;2023-02-12T09:57:22;96343.66;;;2.75;82.19
22647;BME280;11490;42.726;23.268;2023-02-12T09:59:57;96351.88;;;2.71;82.75
22647;BME280;11490;42.726;23.268;2023-02-12T10:02:23;96355.16;;;2.74;83.15
22647;BME280;11490;42.726;23.268;2023-02-12T10:04:49;96348.63;;;2.78;82.68
22647;BME280;11490;42.726;23.268;2023-02-12T10:09:50;96353.88;;;2.78;82.42
22647;BME280;11490;42.726;23.268;2023-02-12T10:12:35;96348.25;;;2.72;83.10
22647;BME280;11490;42.726;23.268;2023-02-12T10:15:14;96347.91;;;2.67;83.29
22647;BME280;11490;42.726;23.268;2023-02-12T10:17:49;96354.88;;;2.77;83.23
22647;BME280;11490;42.726;23.268;2023-02-12T10:23:35;96346.00;;;2.86;83.32
22647;BME280;11490;42.726;23.268;2023-02-12T10:26:27;96324.91;;;2.86;83.45
22647;BME280;11490;42.726;23.268;2023-02-12T10:29:10;96322.94;;;3.04;82.40
22647;BME280;11490;42.726;23.268;2023-02-12T10:32:10;96346.38;;;3.31;81.47
22647;BME280;11490;42.726;23.268;2023-02-12T10:34:37;96314.06;;;3.29;81.39
22647;BME280;11490;42.726;23.268;2023-02-12T10:37:38;96321.97;;;3.45;80.64
22647;BME280;11490;42.726;23.268;2023-02-12T10:40:06;96327.22;;;3.78;79.45
22647;BME280;11490;42.726;23.268;2023-02-12T10:42:44;96315.69;;;3.71;78.41
22647;BME280;11490;42.726;23.268;2023-02-12T10:45:18;96309.72;;;3.77;78.33
22647;BME280;11490;42.726;23.268;2023-02-12T10:47:45;96341.06;;;4.27;77.66
22647;BME280;11490;42.726;23.268;2023-02-12T10:50:27;96341.88;;;4.36;77.35
22647;BME280;11490;42.726;23.268;2023-02-12T10:52:57;96346.16;;;4.37;76.31
22647;BME280;11490;42.726;23.268;2023-02-12T10:57:53;96349.69;;;4.60;75.39
22647;BME280;11490;42.726;23.268;2023-02-12T11:00:34;96347.09;;;4.52;76.14
22647;BME280;11490;42.726;23.268;2023-02-12T11:05:29;96341.47;;;4.16;76.99
22647;BME280;11490;42.726;23.268;2023-02-12T11:08:03;96311.28;;;4.10;77.37
22647;BME280;11490;42.726;23.268;2023-02-12T11:10:32;96318.88;;;4.05;77.38
22647;BME280;11490;42.726;23.268;2023-02-12T11:13:01;96341.03;;;4.35;78.13
22647;BME280;11490;42.726;23.268;2023-02-12T11:15:45;96309.91;;;4.22;77.04
22647;BME280;11490;42.726;23.268;2023-02-12T11:18:21;96323.00;;;4.47;75.50
22647;BME280;11490;42.726;23.268;2023-02-12T11:20:51;96316.41;;;4.43;75.22
22647;BME280;11490;42.726;23.268;2023-02-12T11:23:27;96314.75;;;4.42;74.84
22647;BME280;11490;42.726;23.268;2023-02-12T11:25:59;96342.06;;;4.65;74.77
22647;BME280;11490;42.726;23.268;2023-02-12T11:28:26;96344.41;;;4.60;74.74
22647;BME280;11490;42.726;23.268;2023-02-12T11:31:03;96341.50;;;4.78;74.77
22647;BME280;11490;42.726;23.268;2023-02-12T11:33:41;96320.91;;;4.65;74.43
22647;BME280;11490;42.726;23.268;2023-02-12T11:36:23;96328.97;;;4.80;75.11
22647;BME280;11490;42.726;23.268;2023-02-12T11:38:54;96352.13;;;5.00;74.85
22647;BME280;11490;42.726;23.268;2023-02-12T11:41:34;96349.53;;;4.92;75.61
22647;BME280;11490;42.726;23.268;2023-02-12T11:44:08;96330.22;;;4.61;75.72
22647;BME280;11490;42.726;23.268;2023-02-12T11:46:34;96308.41;;;4.59;75.59
22647;BME280;11490;42.726;23.268;2023-02-12T11:49:00;96334.16;;;4.88;75.23
22647;BME280;11490;42.726;23.268;2023-02-12T11:51:28;96323.44;;;4.89;74.41
22647;BME280;11490;42.726;23.268;2023-02-12T11:53:58;96334.09;;;4.73;74.77
22647;BME280;11490;42.726;23.268;2023-02-12T11:56:40;96323.94;;;4.62;75.38
22647;BME280;11490;42.726;23.268;2023-02-12T12:02:27;96337.84;;;5.10;74.64
22647;BME280;11490;42.726;23.268;2023-02-12T12:04:53;96306.50;;;4.76;74.24
22647;BME280;11490;42.726;23.268;2023-02-12T12:07:30;96333.31;;;5.18;74.12
22647;BME280;11490;42.726;23.268;2023-02-12T12:10:00;96351.19;;;5.16;73.72
22647;BME280;11490;42.726;23.268;2023-02-12T12:12:42;96310.34;;;4.65;74.74
22647;BME280;11490;42.726;23.268;2023-02-12T12:15:14;96349.63;;;4.99;74.26
22647;BME280;11490;42.726;23.268;2023-02-12T12:24:14;96301.50;;;4.50;74.56
22647;BME280;11490;42.726;23.268;2023-02-12T12:26:52;96311.66;;;4.69;74.97
22647;BME280;11490;42.726;23.268;2023-02-12T12:29:50;96340.53;;;5.01;75.47
22647;BME280;11490;42.726;23.268;2023-02-12T12:32:18;96346.41;;;5.12;74.69
22647;BME280;11490;42.726;23.268;2023-02-12T12:34:46;96314.72;;;5.03;74.32
22647;BME280;11490;42.726;23.268;2023-02-12T12:37:36;96342.34;;;4.78;74.18
22647;BME280;11490;42.726;23.268;2023-02-12T12:43:11;96353.72;;;5.10;74.31
22647;BME280;11490;42.726;23.268;2023-02-12T12:51:55;96358.88;;;5.03;73.52
22647;BME280;11490;42.726;23.268;2023-02-12T12:57:25;96349.22;;;4.87;73.68
22647;BME280;11490;42.726;23.268;2023-02-12T13:06:44;96379.03;;;5.27;73.40
22647;BME280;11490;42.726;23.268;2023-02-12T13:09:22;96376.09;;;5.22;72.47
22647;BME280;11490;42.726;23.268;2023-02-12T13:14:38;96327.19;;;4.72;73.34
22647;BME280;11490;42.726;23.268;2023-02-12T13:17:19;96379.53;;;4.99;73.90
22647;BME280;11490;42.726;23.268;2023-02-12T13:19:59;96384.19;;;4.97;73.30
22647;BME280;11490;42.726;23.268;2023-02-12T13:22:41;96342.63;;;4.83;73.79
22647;BME280;11490;42.726;23.268;2023-02-12T13:33:40;96324.34;;;4.74;72.96
22647;BME280;11490;42.726;23.268;2023-02-12T13:39:41;96364.91;;;5.34;72.02
22647;BME280;11490;42.726;23.268;2023-02-12T13:42:19;96390.31;;;5.43;71.54
22647;BME280;11490;42.726;23.268;2023-02-12T13:44:58;96390.50;;;5.42;71.58
22647;BME280;11490;42.726;23.268;2023-02-12T13:49:57;96391.63;;;5.25;72.49
22647;BME280;11490;42.726;23.268;2023-02-12T13:55:13;96391.03;;;5.15;73.52
22647;BME280;11490;42.726;23.268;2023-02-12T13:57:45;96387.56;;;4.83;73.81
22647;BME280;11490;42.726;23.268;2023-02-12T14:03:11;96391.81;;;4.92;74.16
22647;BME280;11490;42.726;23.268;2023-02-12T14:05:37;96372.03;;;4.80;74.09
22647;BME280;11490;42.726;23.268;2023-02-12T14:08:04;96387.22;;;4.86;74.36
22647;BME280;11490;42.726;23.268;2023-02-12T14:10:31;96416.59;;;4.91;74.41
22647;BME280;11490;42.726;23.268;2023-02-12T14:13:18;96420.84;;;5.00;74.59
22647;BME280;11490;42.726;23.268;2023-02-12T14:15:48;96402.53;;;4.60;74.84
22647;BME280;11490;42.726;23.268;2023-02-12T14:23:37;96425.66;;;4.58;75.30
22647;BME280;11490;42.726;23.268;2023-02-12T14:28:42;96435.25;;;4.51;76.19
22647;BME280;11490;42.726;23.268;2023-02-12T14:36:39;96454.38;;;4.69;76.18
22647;BME280;11490;42.726;23.268;2023-02-12T14:41:50;96439.28;;;4.31;76.67
22647;BME280;11490;42.726;23.268;2023-02-12T14:54:48;96460.13;;;4.09;79.33
22647;BME280;11490;42.726;23.268;2023-02-12T14:59:49;96469.34;;;3.97;80.20
22647;BME280;11490;42.726;23.268;2023-02-12T15:02:28;96451.22;;;3.86;80.34
22647;BME280;11490;42.726;23.268;2023-02-12T15:05:21;96485.19;;;3.97;80.80
22647;BME280;11490;42.726;23.268;2023-02-12T15:08:10;96450.56;;;3.84;80.32
22647;BME280;11490;42.726;23.268;2023-02-12T15:16:40;96439.34;;;3.82;79.79
22647;BME280;11490;42.726;23.268;2023-02-12T15:22:24;96483.38;;;3.98;79.85
22647;BME280;11490;42.726;23.268;2023-02-12T15:25:19;96500.69;;;3.92;81.08
22647;BME280;11490;42.726;23.268;2023-02-12T15:27:48;96496.72;;;3.88;81.10
22647;BME280;11490;42.726;23.268;2023-02-12T15:30:19;96543.25;;;4.13;80.95
22647;BME280;11490;42.726;23.268;2023-02-12T15:32:49;96542.59;;;4.03;81.20
22647;BME280;11490;42.726;23.268;2023-02-12T15:35:25;96539.31;;;4.01;81.39
22647;BME280;11490;42.726;23.268;2023-02-12T15:37:52;96493.09;;;3.73;81.39
22647;BME280;11490;42.726;23.268;2023-02-12T15:40:18;96484.50;;;3.55;82.03
22647;BME280;11490;42.726;23.268;2023-02-12T15:43:04;96520.13;;;3.67;82.22
22647;BME280;11490;42.726;23.268;2023-02-12T15:45:33;96550.19;;;3.90;82.58